Time;durP1;ratioP1;P1;durP2;ratioP2;P2;SDS_P1;SDS_P2;PMS_P1;PMS_P2;Temp;Humidity;BMP_temperature;BMP_pressure;BME280_temperature;BME280_humidity;BME280_pressure;Samples;Min_cycle;Max_cycle;Signal;HPM_P1;HPM_P2
2021/07/27 00:01:06;;;;;;;12.37;11.10;;;;;;;19.30;81.73;101015.28;4999874;28;20711;-79
2021/07/27 00:03:31;;;;;;;74.73;67.70;;;;;;;19.27;81.77;101021.22;5001121;28;20189;-79
2021/07/27 00:05:56;;;;;;;14.40;13.07;;;;;;;19.22;82.12;101010.28;4994413;28;20459;-78
2021/07/27 00:08:22;;;;;;;17.40;15.67;;;;;;;19.06;81.56;100988.31;4997336;28;20189;-80
2021/07/27 00:10:47;;;;;;;50.83;45.67;;;;;;;19.05;81.83;100983.13;4997903;28;20197;-79
2021/07/27 00:13:12;;;;;;;166.03;150.50;;;;;;;17.71;82.11;100798.38;4996133;28;20216;-80
2021/07/27 00:15:38;;;;;;;193.10;174.90;;;;;;;19.22;81.65;101011.09;5012612;28;20208;-80
2021/07/27 00:18:07;;;;;;;33.63;30.47;;;;;;;18.57;81.11;100890.34;4997776;28;20209;-78
2021/07/27 00:20:32;;;;;;;221.00;202.20;;;;;;;18.67;82.75;100963.84;4998765;28;20193;-80
2021/07/27 00:22:58;;;;;;;146.83;132.73;;;;;;;18.71;82.64;100964.97;4998776;28;20558;-80
2021/07/27 00:25:23;;;;;;;89.77;82.47;;;;;;;18.92;82.76;101006.91;4997768;28;20178;-81
2021/07/27 00:27:49;;;;;;;225.67;202.73;;;;;;;18.83;82.81;100981.19;5000019;28;20313;-79
2021/07/27 00:30:14;;;;;;;145.97;131.70;;;;;;;17.87;82.07;100820.34;5000154;28;20200;-79
2021/07/27 00:32:41;;;;;;;121.40;109.13;;;;;;;18.43;83.08;100929.81;4998840;28;20779;-82
2021/07/27 00:35:09;;;;;;;84.60;76.57;;;;;;;19.08;82.80;101023.41;5000409;28;20200;-79
2021/07/27 00:37:41;;;;;;;358.60;323.40;;;;;;;18.96;83.36;101018.09;4997748;28;23283;-79
2021/07/27 00:40:07;;;;;;;195.93;177.77;;;;;;;18.97;83.19;101020.53;4996427;28;20519;-82
2021/07/27 00:42:47;;;;;;;131.33;118.00;;;;;;;19.32;81.84;101024.81;4995753;28;20491;-79
2021/07/27 00:45:13;;;;;;;392.43;355.13;;;;;;;18.88;83.27;101013.88;5000143;28;20450;-79
2021/07/27 00:47:39;;;;;;;111.80;100.93;;;;;;;18.86;83.59;100998.91;4997942;28;20468;-79
2021/07/27 00:50:07;;;;;;;157.73;142.40;;;;;;;18.89;83.40;101009.28;4998757;28;20817;-79
2021/07/27 00:52:34;;;;;;;77.33;69.93;;;;;;;18.91;82.54;100988.94;4996444;28;20440;-78
2021/07/27 00:55:00;;;;;;;68.73;62.33;;;;;;;18.23;82.65;100876.00;4996937;28;20505;-79
2021/07/27 00:57:27;;;;;;;104.60;95.03;;;;;;;18.98;83.63;101034.97;4999266;28;20467;-79
2021/07/27 00:59:52;;;;;;;148.80;134.30;;;;;;;18.70;83.71;100995.13;5003234;28;20189;-79
2021/07/27 01:02:18;;;;;;;47.43;42.83;;;;;;;18.29;84.30;100941.00;5002442;28;20447;-79
2021/07/27 01:04:45;;;;;;;174.83;157.57;;;;;;;18.89;83.97;101034.59;5001930;28;20216;-79
2021/07/27 01:07:11;;;;;;;48.93;44.17;;;;;;;18.07;84.86;100945.50;4999449;28;20213;-82
2021/07/27 01:09:36;;;;;;;247.33;223.27;;;;;;;18.19;84.54;100970.69;5001633;28;20437;-80
2021/07/27 01:12:02;;;;;;;264.43;238.90;;;;;;;19.01;83.32;101030.94;5001541;28;20195;-79
2021/07/27 01:14:27;;;;;;;128.70;115.67;;;;;;;18.76;83.17;100977.03;5001097;28;20692;-80
2021/07/27 01:16:53;;;;;;;397.17;361.80;;;;;;;18.45;84.87;101007.22;5000728;28;20249;-80
2021/07/27 01:19:43;;;;;;;177.87;160.97;;;;;;;18.51;84.73;101014.41;4997982;28;20555;-79
2021/07/27 01:43:47;;;;;;;92.47;83.20;;;;;;;18.32;84.81;100971.44;4999804;28;20443;-79
2021/07/27 01:46:15;;;;;;;653.70;595.87;;;;;;;18.69;84.23;101029.63;5002187;28;20538;-80
2021/07/27 01:48:41;;;;;;;175.57;158.07;;;;;;;18.38;84.33;100987.56;5001208;28;20511;-80
2021/07/27 01:51:06;;;;;;;424.47;385.83;;;;;;;18.63;84.07;101027.91;5001080;28;20447;-80
2021/07/27 01:53:44;;;;;;;204.07;183.13;;;;;;;17.86;84.56;100910.97;5000270;28;20201;-79
2021/07/27 01:56:12;;;;;;;266.00;238.80;;;;;;;18.46;84.70;101021.66;5001079;28;20609;-80
2021/07/27 01:58:38;;;;;;;189.53;171.17;;;;;;;18.53;84.25;101022.28;5002266;28;20439;-81
2021/07/27 02:01:03;;;;;;;66.07;59.50;;;;;;;18.17;84.94;100972.03;5001069;28;20492;-82
2021/07/27 02:03:28;;;;;;;185.83;167.00;;;;;;;17.92;84.36;100899.94;4998506;28;20188;-81
2021/07/27 02:05:54;;;;;;;90.70;81.40;;;;;;;17.88;84.32;100898.81;4998017;28;21159;-81
2021/07/27 02:08:21;;;;;;;113.20;101.23;;;;;;;18.60;83.57;100986.81;4999945;28;20296;-81
2021/07/27 02:10:50;;;;;;;50.73;45.47;;;;;;;18.07;84.19;100943.63;4996471;28;20212;-81
2021/07/27 02:13:29;;;;;;;175.60;157.03;;;;;;;18.39;83.92;100956.63;4999784;28;20911;-79
2021/07/27 02:15:55;;;;;;;332.40;300.90;;;;;;;18.85;83.55;101035.31;5000475;28;20427;-79
2021/07/27 02:18:24;;;;;;;73.17;65.77;;;;;;;18.76;83.68;100985.19;4998985;28;20920;-79
2021/07/27 02:20:49;;;;;;;33.20;29.63;;;;;;;18.78;83.81;101012.94;4997656;28;20474;-79
2021/07/27 02:23:15;;;;;;;85.13;76.93;;;;;;;18.80;84.01;101014.31;4996030;28;20926;-78
2021/07/27 02:25:41;;;;;;;199.57;179.30;;;;;;;17.45;84.19;100796.34;4995479;28;20193;-79
2021/07/27 02:28:11;;;;;;;108.63;97.73;;;;;;;18.42;83.56;100937.09;4997503;28;20464;-79
2021/07/27 02:30:40;;;;;;;309.37;280.07;;;;;;;18.73;84.14;101006.34;4996807;28;20192;-81
2021/07/27 02:33:05;;;;;;;147.47;132.47;;;;;;;18.74;84.09;101007.97;4998829;28;20467;-80
2021/07/27 02:35:34;;;;;;;151.13;135.73;;;;;;;18.79;83.81;101003.72;5000110;28;20452;-80
2021/07/27 02:38:00;;;;;;;788.97;721.60;;;;;;;17.71;84.28;100865.38;5002293;28;20339;-81
2021/07/27 02:40:25;;;;;;;135.00;121.13;;;;;;;18.61;84.73;101012.91;5003855;28;20914;-80
2021/07/27 02:42:51;;;;;;;288.40;259.87;;;;;;;18.36;84.74;100978.03;5002708;28;20196;-79
2021/07/27 02:45:23;;;;;;;185.50;166.80;;;;;;;18.45;84.80;101001.78;4998724;28;20710;-79
2021/07/27 02:47:49;;;;;;;371.77;340.70;;;;;;;18.22;84.43;100969.38;5000372;28;20578;-79
2021/07/27 02:50:15;;;;;;;193.03;173.47;;;;;;;18.45;83.77;100965.66;4999874;28;20444;-79
2021/07/27 02:52:41;;;;;;;215.83;195.77;;;;;;;18.62;84.44;101012.66;5001233;28;20225;-79
2021/07/27 02:55:07;;;;;;;130.43;117.63;;;;;;;17.49;83.03;100805.59;5003626;28;20189;-80
2021/07/27 02:57:33;;;;;;;197.47;178.03;;;;;;;18.00;84.03;100896.00;5004341;28;20505;-79
2021/07/27 03:00:03;;;;;;;425.03;389.50;;;;;;;18.39;83.72;100948.47;5001225;28;20460;-79
2021/07/27 03:02:38;;;;;;;308.77;282.70;;;;;;;18.73;83.64;100998.19;5002073;28;20194;-79
2021/07/27 03:05:04;;;;;;;179.60;163.77;;;;;;;18.44;85.49;101005.59;5002343;28;20439;-80
2021/07/27 03:10:18;;;;;;;122.63;111.07;;;;;;;18.43;84.62;100962.41;5004679;28;20939;-79
2021/07/27 03:12:44;;;;;;;178.10;160.80;;;;;;;18.57;84.92;100982.69;5007526;28;20460;-80
2021/07/27 03:15:11;;;;;;;429.57;393.87;;;;;;;18.55;84.82;100979.41;5005857;28;20503;-80
2021/07/27 03:17:37;;;;;;;458.43;415.53;;;;;;;18.56;84.32;100970.19;5002522;28;20483;-79
2021/07/27 03:20:09;;;;;;;127.13;114.33;;;;;;;18.72;84.27;100982.94;5004335;28;20432;-80
2021/07/27 03:22:35;;;;;;;230.20;208.50;;;;;;;18.44;84.19;100942.31;4999087;28;20531;-79
2021/07/27 03:25:01;;;;;;;255.20;229.80;;;;;;;18.13;84.03;100875.84;5006093;28;20449;-79
2021/07/27 03:27:26;;;;;;;278.23;252.77;;;;;;;18.21;84.51;100938.69;5007319;28;21058;-79
2021/07/27 03:29:52;;;;;;;249.87;228.23;;;;;;;18.39;84.51;100966.66;5003898;28;20576;-80
2021/07/27 03:32:17;;;;;;;726.70;665.00;;;;;;;18.41;83.97;100953.66;5003098;28;20254;-80
2021/07/27 03:34:43;;;;;;;550.70;503.20;;;;;;;18.59;84.38;100994.13;5005919;28;20217;-81
2021/07/27 03:37:12;;;;;;;398.13;360.10;;;;;;;18.55;83.75;100998.44;5002973;28;20214;-80
2021/07/27 03:39:38;;;;;;;207.60;186.37;;;;;;;18.35;83.04;100930.22;5006876;28;20487;-80
2021/07/27 03:42:04;;;;;;;590.20;538.37;;;;;;;18.49;83.21;100951.34;5005485;28;20460;-79
2021/07/27 03:44:30;;;;;;;217.90;196.03;;;;;;;18.29;83.95;100951.84;5003544;28;20312;-79
2021/07/27 03:47:06;;;;;;;218.60;196.23;;;;;;;18.90;82.81;101006.31;5003590;28;20494;-79
2021/07/27 03:49:31;;;;;;;274.10;247.87;;;;;;;18.46;83.47;100951.03;5004110;28;20563;-79
2021/07/27 03:52:01;;;;;;;170.50;154.10;;;;;;;18.29;84.54;100954.56;5003964;28;20468;-79
2021/07/27 03:54:33;;;;;;;206.20;184.67;;;;;;;18.57;84.45;101003.59;5001610;28;20220;-79
2021/07/27 03:56:58;;;;;;;252.63;228.43;;;;;;;18.71;85.01;101007.63;5005029;28;20519;-79
2021/07/27 03:59:24;;;;;;;301.13;271.83;;;;;;;18.27;83.94;100905.13;5003843;28;20455;-79
2021/07/27 04:01:50;;;;;;;237.47;214.03;;;;;;;18.72;84.45;101001.13;5008875;28;20181;-80
2021/07/27 04:04:18;;;;;;;339.10;304.30;;;;;;;18.86;84.00;100999.75;5003519;28;20283;-80
2021/07/27 04:06:47;;;;;;;207.20;186.67;;;;;;;18.93;83.87;101000.38;4997553;28;20873;-79
2021/07/27 04:09:12;;;;;;;524.37;476.77;;;;;;;18.71;84.37;101010.34;5000031;28;20453;-82
2021/07/27 04:11:37;;;;;;;568.33;519.70;;;;;;;18.23;85.09;100961.00;5000800;28;20460;-82
2021/07/27 04:14:07;;;;;;;567.13;516.97;;;;;;;18.35;84.36;100938.38;4998381;28;20216;-80
2021/07/27 04:16:32;;;;;;;135.10;120.97;;;;;;;18.15;83.36;100884.56;4998999;28;20690;-79
2021/07/27 04:18:58;;;;;;;325.93;294.60;;;;;;;18.81;83.62;100993.41;5000867;28;20447;-80
2021/07/27 04:21:26;;;;;;;407.23;369.43;;;;;;;18.37;84.46;100945.19;4998125;28;20193;-80
2021/07/27 04:23:51;;;;;;;385.43;351.67;;;;;;;18.07;84.09;100900.19;4999546;28;20225;-79
2021/07/27 04:26:17;;;;;;;281.97;254.57;;;;;;;18.77;84.12;100992.25;4996875;28;20662;-79
2021/07/27 04:28:42;;;;;;;561.10;514.17;;;;;;;17.52;84.27;100843.09;5001128;28;20979;-80
2021/07/27 04:31:08;;;;;;;616.20;564.37;;;;;;;18.18;83.93;100911.22;5000160;28;20696;-80
2021/07/27 04:33:35;;;;;;;439.60;399.77;;;;;;;18.73;84.84;101006.34;4999402;28;20300;-79
2021/07/27 04:36:01;;;;;;;352.37;318.97;;;;;;;17.64;85.48;100849.25;4998745;28;20605;-79
2021/07/27 04:38:26;;;;;;;802.43;731.77;;;;;;;17.46;85.00;100833.22;4999371;28;20448;-80
2021/07/27 04:40:53;;;;;;;306.50;276.47;;;;;;;18.19;85.30;100921.00;5000848;28;20279;-80
2021/07/27 04:43:18;;;;;;;773.23;704.00;;;;;;;18.30;83.49;100910.06;5001029;28;20265;-81
2021/07/27 04:45:43;;;;;;;374.07;339.60;;;;;;;18.83;83.53;101000.22;5000063;28;20451;-79
2021/07/27 04:48:09;;;;;;;264.07;237.20;;;;;;;18.76;83.35;100977.03;5000291;28;20212;-79
2021/07/27 04:50:37;;;;;;;573.20;522.53;;;;;;;18.11;84.32;100896.97;4998280;28;20190;-81
2021/07/27 04:53:10;;;;;;;760.80;696.53;;;;;;;17.24;83.82;100754.47;4996039;28;20209;-80
2021/07/27 04:55:36;;;;;;;540.23;493.07;;;;;;;18.63;84.17;101005.31;4997767;28;20440;-81
2021/07/27 04:58:04;;;;;;;287.10;259.07;;;;;;;18.55;84.89;100994.91;5001157;28;20515;-80
2021/07/27 05:00:30;;;;;;;369.63;335.43;;;;;;;18.10;84.71;100934.16;4996826;28;20463;-80
2021/07/27 05:02:58;;;;;;;475.27;433.57;;;;;;;17.11;84.72;100785.44;4998311;28;20436;-81
2021/07/27 05:05:24;;;;;;;519.47;474.50;;;;;;;17.07;84.22;100770.75;4995838;28;20250;-80
2021/07/27 05:07:51;;;;;;;631.47;574.60;;;;;;;18.55;84.26;101000.34;4998137;28;20503;-81
2021/07/27 05:10:17;;;;;;;480.63;437.97;;;;;;;16.88;83.48;100730.28;4999102;28;20447;-81
2021/07/27 05:12:45;;;;;;;221.27;197.70;;;;;;;18.28;83.62;100960.25;4999747;28;20441;-80
2021/07/27 05:15:11;;;;;;;243.53;219.03;;;;;;;16.81;83.36;100717.97;4997488;28;20447;-79
2021/07/27 05:17:37;;;;;;;472.30;432.53;;;;;;;18.30;83.32;100952.69;5000826;28;20464;-79
2021/07/27 05:20:04;;;;;;;162.13;145.83;;;;;;;18.61;83.27;101002.88;4998023;28;20192;-79
2021/07/27 05:22:30;;;;;;;148.17;132.83;;;;;;;18.64;82.69;101001.56;4997210;28;20977;-79
2021/07/27 05:24:56;;;;;;;543.00;495.83;;;;;;;18.35;83.01;100998.09;4993855;28;20601;-80
2021/07/27 05:27:25;;;;;;;133.00;119.47;;;;;;;18.57;82.49;100998.16;4995663;28;20591;-79
2021/07/27 05:29:55;;;;;;;167.47;151.87;;;;;;;18.48;82.96;101011.34;5003570;28;20443;-81
2021/07/27 05:32:21;;;;;;;217.00;194.87;;;;;;;18.48;82.23;101011.34;5003085;28;20559;-80
2021/07/27 05:34:47;;;;;;;84.47;75.87;;;;;;;18.07;83.19;100968.03;5001782;28;20486;-81
2021/07/27 05:37:12;;;;;;;195.60;177.53;;;;;;;18.38;81.65;100994.91;5000675;28;20468;-80
2021/07/27 05:39:38;;;;;;;231.93;210.33;;;;;;;18.32;81.77;101004.03;4999636;28;20192;-83
2021/07/27 05:42:04;;;;;;;186.50;168.30;;;;;;;17.81;81.63;100898.13;5001911;28;20196;-80
2021/07/27 05:44:29;;;;;;;116.53;105.00;;;;;;;18.64;80.58;100996.94;4995990;28;20444;-79
2021/07/27 05:46:57;;;;;;;47.40;42.77;;;;;;;18.18;81.79;100969.03;4998536;28;20205;-80
2021/07/27 05:49:26;;;;;;;73.90;67.00;;;;;;;18.35;81.51;100985.34;4992939;28;20201;-80
2021/07/27 05:51:53;;;;;;;586.60;536.50;;;;;;;18.52;81.22;101007.91;4999514;28;20959;-80
2021/07/27 05:54:19;;;;;;;28.83;25.10;;;;;;;17.01;81.49;100809.63;4996760;28;20495;-83
2021/07/27 05:56:48;;;;;;;73.33;65.90;;;;;;;17.67;81.59;100900.28;4997147;28;20465;-80
2021/07/27 05:59:17;;;;;;;55.00;49.10;;;;;;;18.67;80.41;101014.63;4996867;28;20186;-80
2021/07/27 06:01:43;;;;;;;107.53;96.40;;;;;;;18.34;80.36;100945.69;4995187;28;20499;-80
2021/07/27 06:04:09;;;;;;;67.07;59.83;;;;;;;18.79;80.70;101023.53;4995842;28;20439;-80
2021/07/27 06:06:35;;;;;;;84.33;75.77;;;;;;;18.63;79.72;101022.47;4997997;28;20251;-80
2021/07/27 06:09:06;;;;;;;142.17;127.23;;;;;;;18.95;79.90;101027.31;5012453;28;21001;-80
2021/07/27 06:11:36;;;;;;;61.57;55.53;;;;;;;18.67;80.58;101017.34;5001166;28;20216;-81
2021/07/27 06:14:03;;;;;;;152.77;136.57;;;;;;;18.13;79.56;100936.38;5003542;28;20461;-81
2021/07/27 06:16:29;;;;;;;559.10;512.30;;;;;;;18.24;80.17;100983.53;4996086;28;20574;-82
2021/07/27 06:18:54;;;;;;;349.73;318.27;;;;;;;18.07;80.56;100981.63;5001117;28;21015;-81
2021/07/27 06:21:20;;;;;;;61.20;54.13;;;;;;;18.78;79.50;101038.22;5002359;28;20443;-80
2021/07/27 06:23:47;;;;;;;98.43;89.17;;;;;;;18.80;78.87;101035.22;5001165;28;20649;-79
2021/07/27 06:26:12;;;;;;;309.90;276.47;;;;;;;18.48;80.11;101035.78;5000155;28;20708;-80
2021/07/27 06:28:39;;;;;;;67.57;60.73;;;;;;;18.64;79.97;101040.41;5007265;28;20440;-80
2021/07/27 06:31:11;;;;;;;273.53;248.83;;;;;;;18.66;79.06;101037.44;5005321;28;20208;-81
2021/07/27 06:33:38;;;;;;;45.93;41.30;;;;;;;17.80;79.26;100923.63;5009448;28;20466;-81
2021/07/27 06:36:03;;;;;;;365.13;333.77;;;;;;;17.99;78.94;100946.75;5003057;28;20494;-81
2021/07/27 06:38:29;;;;;;;15.63;12.00;;;;;;;17.99;79.34;100937.78;4999347;28;20436;-82
2021/07/27 06:40:54;;;;;;;253.57;228.10;;;;;;;18.59;79.04;101005.00;4996333;28;20248;-80
2021/07/27 06:43:19;;;;;;;156.77;140.50;;;;;;;18.52;79.04;100999.75;5001508;28;20195;-79
2021/07/27 06:45:55;;;;;;;263.43;238.13;;;;;;;18.39;77.86;100975.63;5004028;28;20215;-79
2021/07/27 06:48:23;;;;;;;83.20;74.40;;;;;;;18.31;78.11;100954.31;5002594;28;20211;-80
2021/07/27 06:50:50;;;;;;;41.77;37.33;;;;;;;19.01;78.07;101064.38;5009112;28;20450;-79
2021/07/27 06:53:15;;;;;;;44.63;39.90;;;;;;;19.11;77.39;101063.69;4995847;28;20530;-80
2021/07/27 06:55:41;;;;;;;136.90;123.73;;;;;;;18.58;78.31;101063.13;5000722;28;20444;-82
2021/07/27 06:58:06;;;;;;;413.97;378.73;;;;;;;18.63;77.97;101076.81;5004203;28;20209;-81
2021/07/27 07:00:32;;;;;;;276.07;251.33;;;;;;;18.78;77.15;101070.00;5003237;28;20189;-81
2021/07/27 07:02:57;;;;;;;262.60;241.00;;;;;;;18.41;76.63;100954.47;4996754;28;20186;-80
2021/07/27 07:05:22;;;;;;;71.00;64.50;;;;;;;19.05;77.14;101072.84;4995975;28;20217;-81
2021/07/27 07:07:47;;;;;;;45.97;41.37;;;;;;;18.27;76.71;100954.00;4995576;28;20236;-78
2021/07/27 07:10:14;;;;;;;503.23;458.40;;;;;;;19.00;76.02;101062.72;4999904;28;20186;-81
2021/07/27 07:12:39;;;;;;;369.00;335.37;;;;;;;18.77;75.78;101069.16;4998807;28;20264;-78
2021/07/27 07:15:05;;;;;;;35.10;31.47;;;;;;;18.30;75.73;100988.78;5000532;28;20539;-79
2021/07/27 07:17:31;;;;;;;33.80;28.70;;;;;;;18.75;74.49;101044.16;4998126;28;20240;-80
2021/07/27 07:19:56;;;;;;;28.97;26.07;;;;;;;18.92;75.31;101071.31;5000366;28;20190;-79
2021/07/27 07:22:22;;;;;;;79.63;71.97;;;;;;;18.84;76.48;101071.72;5000238;28;20196;-80
2021/07/27 07:24:48;;;;;;;475.93;433.03;;;;;;;18.79;76.85;101082.50;4996435;28;20210;-80
2021/07/27 07:27:16;;;;;;;97.23;88.13;;;;;;;18.11;76.73;100973.81;4999907;28;20502;-80
2021/07/27 07:29:42;;;;;;;558.40;512.07;;;;;;;18.39;76.21;101008.22;5000040;28;20189;-81
2021/07/27 07:32:07;;;;;;;533.23;487.23;;;;;;;18.59;76.91;101051.19;4997074;28;20513;-80
2021/07/27 07:34:33;;;;;;;29.00;26.20;;;;;;;18.26;76.72;100982.22;4999271;28;20308;-80
2021/07/27 07:36:59;;;;;;;63.53;57.23;;;;;;;19.13;76.63;101099.63;5006628;28;20262;-80
2021/07/27 07:39:24;;;;;;;428.07;389.60;;;;;;;18.96;76.10;101083.31;5007731;28;20556;-81
2021/07/27 07:41:50;;;;;;;123.93;112.63;;;;;;;19.11;76.04;101096.31;5003887;28;20296;-79
2021/07/27 07:44:16;;;;;;;15.80;14.20;;;;;;;19.06;76.44;101086.19;5004550;28;20643;-79
2021/07/27 07:46:41;;;;;;;33.33;30.07;;;;;;;18.51;76.76;101032.56;5004398;28;20209;-81
2021/07/27 07:49:06;;;;;;;208.00;187.90;;;;;;;18.89;76.99;101096.25;5003908;28;20189;-83
2021/07/27 07:51:37;;;;;;;196.20;177.80;;;;;;;18.34;78.40;101026.31;5007690;28;20191;-82
2021/07/27 07:54:03;;;;;;;62.60;56.43;;;;;;;18.53;78.26;101046.75;5006781;28;20247;-82
2021/07/27 07:56:28;;;;;;;31.80;28.37;;;;;;;19.05;77.55;101079.09;5005896;28;20479;-78
2021/07/27 07:58:53;;;;;;;332.43;302.13;;;;;;;18.87;77.92;101066.59;5002878;28;20864;-77
2021/07/27 08:01:19;;;;;;;46.97;41.97;;;;;;;19.40;75.99;101075.25;4998436;28;20247;-76
2021/07/27 08:03:44;;;;;;;157.37;141.30;;;;;;;19.28;75.85;101085.41;4998760;28;20193;-76
2021/07/27 08:06:09;;;;;;;27.90;24.30;;;;;;;19.47;75.59;101078.63;4996277;28;20193;-77
2021/07/27 08:08:39;;;;;;;47.60;42.67;;;;;;;19.71;74.72;101078.38;5002628;28;20248;-77
2021/07/27 08:11:08;;;;;;;44.67;40.47;;;;;;;19.53;73.57;101061.28;4999271;28;20835;-75
2021/07/27 08:13:33;;;;;;;41.30;37.20;;;;;;;19.61;73.19;101074.44;5002503;28;20970;-73
2021/07/27 08:15:59;;;;;;;444.83;405.03;;;;;;;19.35;72.25;101016.19;5000191;28;20535;-73
2021/07/27 08:18:24;;;;;;;15.93;14.10;;;;;;;19.65;71.81;101042.13;5000151;28;20520;-74
2021/07/27 08:20:50;;;;;;;62.80;56.30;;;;;;;19.63;71.85;101031.47;4999522;28;20200;-74
2021/07/27 08:23:16;;;;;;;141.13;127.03;;;;;;;20.12;71.40;101100.63;4998413;28;20181;-75
2021/07/27 08:25:41;;;;;;;24.13;17.50;;;;;;;20.13;71.31;101096.81;4998135;28;20440;-73
2021/07/27 08:28:06;;;;;;;29.97;24.77;;;;;;;20.09;70.53;101097.34;4998937;28;20209;-73
2021/07/27 08:30:32;;;;;;;17.97;16.07;;;;;;;20.19;70.44;101069.41;5001759;28;20240;-74
2021/07/27 08:32:57;;;;;;;22.43;19.47;;;;;;;20.19;69.25;101074.84;5003273;28;20202;-73
2021/07/27 08:35:23;;;;;;;18.13;14.30;;;;;;;20.35;69.40;101102.22;4996658;28;20893;-74
2021/07/27 08:37:50;;;;;;;127.60;115.07;;;;;;;20.38;68.93;101110.69;4995561;28;20271;-74
2021/07/27 08:40:17;;;;;;;15.70;13.97;;;;;;;20.02;68.97;101033.28;4983814;28;20190;-74
2021/07/27 08:42:42;;;;;;;16.63;12.13;;;;;;;20.47;68.52;101095.53;4986938;28;20448;-74
2021/07/27 08:45:09;;;;;;;111.47;100.70;;;;;;;20.43;67.88;101110.75;4981664;28;20449;-74
2021/07/27 08:47:35;;;;;;;17.30;12.07;;;;;;;20.08;68.02;101064.94;4982349;28;20303;-73
2021/07/27 08:50:03;;;;;;;22.53;13.57;;;;;;;20.66;68.35;101125.16;4993278;28;20912;-74
2021/07/27 08:52:29;;;;;;;99.53;90.13;;;;;;;20.01;67.99;101062.38;4992736;28;20439;-74
2021/07/27 08:54:54;;;;;;;76.80;68.77;;;;;;;20.41;69.08;101134.69;4996020;28;20502;-75
2021/07/27 08:57:20;;;;;;;18.50;16.33;;;;;;;20.23;68.75;101086.03;4996159;28;20696;-74
2021/07/27 08:59:46;;;;;;;19.60;15.00;;;;;;;20.42;69.35;101138.25;4994915;28;20562;-74
2021/07/27 09:02:12;;;;;;;13.30;12.00;;;;;;;20.33;68.11;101084.22;5001974;28;20927;-73
2021/07/27 09:04:37;;;;;;;52.53;46.63;;;;;;;20.42;67.93;101143.69;4998070;28;20450;-74
2021/07/27 09:07:04;;;;;;;29.20;19.60;;;;;;;20.33;68.94;101130.53;4993755;28;20292;-74
2021/07/27 09:09:34;;;;;;;17.73;15.77;;;;;;;20.55;69.22;101137.88;5002719;28;20192;-74
2021/07/27 09:12:09;;;;;;;102.17;91.97;;;;;;;20.25;68.24;101089.31;4993556;28;20447;-74
2021/07/27 09:14:41;;;;;;;130.37;117.50;;;;;;;20.37;68.12;101105.53;4996160;28;20472;-74
2021/07/27 09:17:06;;;;;;;20.47;16.83;;;;;;;20.70;68.66;101129.81;4993360;28;20460;-74
2021/07/27 09:19:40;;;;;;;20.03;16.97;;;;;;;20.24;67.11;101028.56;4994676;28;20464;-74
2021/07/27 09:22:06;;;;;;;22.53;18.60;;;;;;;21.14;67.00;101126.06;4991727;28;20600;-74
2021/07/27 09:24:32;;;;;;;18.63;15.40;;;;;;;21.08;65.80;101081.56;5000007;28;20456;-74
2021/07/27 09:27:05;;;;;;;15.50;13.60;;;;;;;21.41;65.33;101126.84;4995367;28;20944;-74
2021/07/27 09:29:32;;;;;;;19.93;16.60;;;;;;;21.03;66.36;101113.44;5000376;28;20567;-73
2021/07/27 09:32:00;;;;;;;22.10;19.43;;;;;;;21.09;66.29;101123.31;4990528;28;20444;-74
2021/07/27 09:34:29;;;;;;;27.33;20.00;;;;;;;21.11;66.40;101118.41;4993617;28;20471;-73
2021/07/27 09:37:00;;;;;;;21.20;17.20;;;;;;;21.24;66.47;101123.44;5001242;28;20461;-74
2021/07/27 09:39:26;;;;;;;20.40;17.00;;;;;;;21.01;66.11;101074.72;4994456;28;20452;-74
2021/07/27 09:42:02;;;;;;;23.70;20.27;;;;;;;20.97;66.00;101096.22;4994137;28;20459;-74
2021/07/27 09:44:29;;;;;;;24.77;19.60;;;;;;;20.99;66.44;101116.69;4989185;28;20271;-74
2021/07/27 09:46:57;;;;;;;30.30;21.93;;;;;;;21.01;66.23;101129.28;4985956;28;20469;-73
2021/07/27 09:49:24;;;;;;;23.40;19.93;;;;;;;20.91;65.60;101079.00;5000138;28;20951;-76
2021/07/27 09:51:50;;;;;;;284.67;256.80;;;;;;;20.97;64.58;101093.50;4999141;28;20452;-77
2021/07/27 09:54:18;;;;;;;29.57;23.20;;;;;;;20.87;64.92;101099.72;5002522;28;20840;-78
2021/07/27 09:56:47;;;;;;;27.63;20.40;;;;;;;21.26;64.66;101126.69;4991651;28;20509;-75
2021/07/27 09:59:17;;;;;;;143.03;128.27;;;;;;;21.15;64.09;101125.81;4986539;28;20940;-75
2021/07/27 10:01:50;;;;;;;26.53;19.03;;;;;;;21.30;65.71;101130.56;4993616;28;20547;-74
2021/07/27 10:04:22;;;;;;;29.07;23.17;;;;;;;21.41;65.63;101129.56;4999610;28;20443;-75
2021/07/27 10:06:48;;;;;;;42.67;37.33;;;;;;;21.54;65.12;101132.91;4992089;28;20585;-74
2021/07/27 10:09:29;;;;;;;32.23;24.23;;;;;;;21.21;65.90;101127.50;4997307;28;20440;-74
2021/07/27 10:12:05;;;;;;;29.97;22.50;;;;;;;21.24;65.53;101122.63;4993570;28;20483;-73
2021/07/27 10:14:40;;;;;;;26.53;20.20;;;;;;;21.16;65.63;101072.09;4987317;28;20464;-74
2021/07/27 10:17:06;;;;;;;26.40;21.63;;;;;;;21.51;64.50;101117.06;4997177;28;20464;-73
2021/07/27 10:19:45;;;;;;;27.47;21.33;;;;;;;21.72;63.38;101112.50;4993496;28;20491;-74
2021/07/27 10:22:11;;;;;;;56.37;47.07;;;;;;;21.82;62.88;101121.56;4998993;28;20854;-73
2021/07/27 10:24:42;;;;;;;27.10;21.87;;;;;;;21.72;62.39;101110.59;4989584;28;20924;-73
2021/07/27 10:27:16;;;;;;;110.63;98.80;;;;;;;21.58;61.56;101071.22;4990559;28;20814;-74
2021/07/27 10:29:43;;;;;;;21.77;18.70;;;;;;;21.37;62.14;101013.84;4985071;28;20459;-74
2021/07/27 10:32:15;;;;;;;25.53;20.23;;;;;;;21.59;63.15;101062.78;4983016;28;20436;-74
2021/07/27 10:34:41;;;;;;;49.33;43.47;;;;;;;21.73;64.04;101101.34;4985428;28;20475;-74
2021/07/27 10:37:15;;;;;;;30.57;23.40;;;;;;;21.48;65.21;101093.84;4993209;28;21038;-73
2021/07/27 10:39:54;;;;;;;25.10;20.23;;;;;;;21.65;65.70;101099.13;4983564;28;20197;-73
2021/07/27 10:42:20;;;;;;;31.03;24.87;;;;;;;21.63;66.26;101098.56;4994077;28;20456;-74
2021/07/27 10:44:49;;;;;;;27.03;21.80;;;;;;;21.69;65.34;101102.13;4984298;28;20460;-73
2021/07/27 10:47:32;;;;;;;23.37;19.80;;;;;;;21.81;63.93;101092.63;4987661;28;20818;-76
2021/07/27 10:50:00;;;;;;;38.03;33.57;;;;;;;21.54;62.20;101057.31;4985678;28;20451;-76
2021/07/27 10:52:26;;;;;;;22.53;19.60;;;;;;;21.94;61.43;101095.94;4984886;28;20469;-76
2021/07/27 10:54:55;;;;;;;24.83;20.50;;;;;;;21.85;63.44;101087.44;4991627;28;20456;-75
2021/07/27 10:57:29;;;;;;;31.80;24.37;;;;;;;21.74;63.31;101064.75;4986053;28;20464;-77
2021/07/27 10:59:54;;;;;;;28.83;23.07;;;;;;;21.39;63.64;101029.97;4988098;28;20428;-77
2021/07/27 11:02:24;;;;;;;19.57;17.47;;;;;;;22.05;63.64;101094.88;4985816;28;20441;-76
2021/07/27 11:04:49;;;;;;;27.03;22.87;;;;;;;22.03;63.10;101107.97;4985292;28;20185;-76
2021/07/27 11:07:16;;;;;;;19.73;17.63;;;;;;;22.03;63.15;101113.44;4986700;28;20470;-76
2021/07/27 11:09:56;;;;;;;23.27;20.80;;;;;;;21.82;63.42;101105.19;4981635;28;20185;-76
2021/07/27 11:12:41;;;;;;;24.00;21.40;;;;;;;22.05;62.55;101105.81;4985205;28;20473;-76
2021/07/27 11:15:14;;;;;;;23.07;19.67;;;;;;;22.18;62.48;101107.22;4985415;28;20615;-76
2021/07/27 11:17:43;;;;;;;26.50;22.23;;;;;;;22.04;62.06;101096.81;4983124;28;20464;-76
2021/07/27 11:20:11;;;;;;;22.27;17.70;;;;;;;22.35;63.27;101107.81;4990073;28;20460;-76
2021/07/27 11:22:44;;;;;;;21.67;19.20;;;;;;;22.60;62.20;101100.75;4984787;28;20565;-76
2021/07/27 11:25:10;;;;;;;22.20;19.70;;;;;;;22.21;61.92;101039.19;4984316;28;20809;-77
2021/07/27 11:27:36;;;;;;;24.37;19.83;;;;;;;22.73;61.37;101106.47;4987050;28;20475;-76